Time;durP1;ratioP1;P1;durP2;ratioP2;P2;SDS_P1;SDS_P2;PMS_P1;PMS_P2;Temp;Humidity;BMP_temperature;BMP_pressure;BME280_temperature;BME280_humidity;BME280_pressure;Samples;Min_cycle;Max_cycle;Signal;HPM_P1;HPM_P2
2022/01/03 00:01:11;;;;;;;9.30;1.10;;;7.90;99.90;;;;;;6237328;23;20020;-86
2022/01/03 00:03:37;;;;;;;14.68;1.40;;;7.90;99.90;;;;;;6237182;23;20016;-85
2022/01/03 00:06:03;;;;;;;11.38;1.75;;;8.20;99.90;;;;;;6238088;23;20024;-85
2022/01/03 00:08:29;;;;;;;12.55;1.35;;;8.00;99.90;;;;;;6236700;23;20107;-85
2022/01/03 00:10:56;;;;;;;14.52;2.15;;;8.10;99.90;;;;;;6212900;23;20447;-84
2022/01/03 00:13:22;;;;;;;16.50;2.10;;;8.80;99.90;;;;;;6212581;23;20302;-85
2022/01/03 00:15:48;;;;;;;6.50;1.30;;;8.20;99.90;;;;;;6235785;23;20452;-85
2022/01/03 00:18:14;;;;;;;13.25;2.20;;;8.20;99.90;;;;;;6238224;23;20031;-85
2022/01/03 00:20:42;;;;;;;13.10;2.28;;;8.20;99.90;;;;;;6236911;23;20055;-84
2022/01/03 00:23:08;;;;;;;12.70;1.80;;;8.30;99.90;;;;;;6212230;23;20012;-85
2022/01/03 00:25:37;;;;;;;13.18;2.03;;;8.50;99.90;;;;;;6237654;23;20027;-85
2022/01/03 00:28:14;;;;;;;17.65;2.42;;;8.40;99.90;;;;;;6238453;23;20027;-85
2022/01/03 00:30:42;;;;;;;9.00;1.70;;;8.40;99.90;;;;;;6236347;23;20020;-85
2022/01/03 00:33:08;;;;;;;13.57;2.30;;;8.50;99.90;;;;;;6212961;23;20099;-85
2022/01/03 00:35:39;;;;;;;17.35;2.25;;;8.50;99.90;;;;;;6236779;23;20074;-85
2022/01/03 00:38:08;;;;;;;16.67;2.17;;;9.10;99.90;;;;;;6212238;23;20024;-86
2022/01/03 00:40:34;;;;;;;16.45;2.33;;;9.40;99.90;;;;;;6237904;23;20496;-86
2022/01/03 00:43:02;;;;;;;25.30;2.78;;;8.60;99.90;;;;;;6211954;23;20024;-86
2022/01/03 00:45:28;;;;;;;22.48;2.72;;;9.10;99.90;;;;;;6237131;23;20317;-85
2022/01/03 00:47:55;;;;;;;15.15;2.60;;;8.60;99.90;;;;;;6213125;23;20122;-86
2022/01/03 00:50:22;;;;;;;19.95;3.85;;;8.70;99.90;;;;;;6210684;23;20082;-86
2022/01/03 00:52:50;;;;;;;14.30;1.92;;;9.40;99.90;;;;;;6212926;23;20019;-87
2022/01/03 00:55:19;;;;;;;19.17;3.40;;;8.70;99.90;;;;;;6237737;23;20077;-86
2022/01/03 00:58:07;;;;;;;18.38;3.20;;;9.00;99.90;;;;;;6212093;23;20339;-86
2022/01/03 01:00:37;;;;;;;20.65;2.92;;;8.70;99.90;;;;;;6237464;23;20514;-86
2022/01/03 01:03:15;;;;;;;24.08;3.70;;;8.70;99.90;;;;;;6212077;23;20012;-86
2022/01/03 01:05:46;;;;;;;16.92;3.10;;;8.70;99.90;;;;;;6210577;23;20012;-86
2022/01/03 01:08:14;;;;;;;19.75;2.45;;;9.20;99.90;;;;;;6213020;23;20020;-87
2022/01/03 01:10:41;;;;;;;23.63;3.35;;;8.90;99.90;;;;;;6211976;23;20017;-86
2022/01/03 01:13:11;;;;;;;21.08;2.90;;;9.10;99.90;;;;;;6237499;22;20019;-86
2022/01/03 01:15:37;;;;;;;21.70;3.47;;;8.70;99.90;;;;;;6236932;23;20051;-87
2022/01/03 01:18:13;;;;;;;27.20;4.13;;;8.80;99.90;;;;;;6236664;23;20035;-87
2022/01/03 01:20:39;;;;;;;22.25;3.20;;;8.70;99.90;;;;;;6211819;23;20016;-87
2022/01/03 01:23:06;;;;;;;27.40;4.90;;;8.90;99.90;;;;;;6238320;23;20020;-86
2022/01/03 01:28:05;;;;;;;21.65;3.40;;;8.80;99.90;;;;;;6237846;23;20035;-87
2022/01/03 01:30:31;;;;;;;24.95;4.70;;;8.80;99.90;;;;;;6211586;23;20047;-86
2022/01/03 01:33:07;;;;;;;27.23;3.72;;;9.60;99.90;;;;;;6236559;23;20091;-86
2022/01/03 01:35:42;;;;;;;25.60;3.58;;;8.80;99.90;;;;;;6236862;23;20107;-86
2022/01/03 01:38:11;;;;;;;25.27;3.55;;;9.20;99.90;;;;;;6212238;23;20016;-85
2022/01/03 01:40:44;;;;;;;23.02;3.40;;;9.10;99.90;;;;;;6236197;23;20020;-86
2022/01/03 01:43:12;;;;;;;30.08;3.90;;;9.00;99.90;;;;;;6237531;23;20455;-86
2022/01/03 01:45:42;;;;;;;32.40;4.95;;;8.70;99.90;;;;;;6211512;23;20016;-86
2022/01/03 01:48:11;;;;;;;22.42;2.97;;;8.80;99.90;;;;;;6211186;23;20024;-86
2022/01/03 01:50:40;;;;;;;26.60;4.60;;;9.40;99.90;;;;;;6211302;23;20016;-85
2022/01/03 01:53:08;;;;;;;26.35;4.55;;;9.30;99.90;;;;;;6237224;23;20047;-87
2022/01/03 01:55:35;;;;;;;22.85;4.78;;;9.50;99.90;;;;;;6211702;23;20027;-86
2022/01/03 01:58:05;;;;;;;28.25;3.92;;;8.80;99.90;;;;;;6235941;23;20024;-86
2022/01/03 02:00:33;;;;;;;27.88;4.13;;;8.80;99.90;;;;;;6210553;23;20512;-85
2022/01/03 02:03:14;;;;;;;27.80;3.60;;;8.80;99.90;;;;;;6211790;23;20016;-85
2022/01/03 02:05:42;;;;;;;29.48;4.15;;;8.80;99.90;;;;;;6210773;23;20011;-85
2022/01/03 02:08:27;;;;;;;30.60;4.72;;;9.20;99.90;;;;;;6236681;23;20023;-85
2022/01/03 02:11:04;;;;;;;25.17;3.53;;;9.40;99.90;;;;;;6237121;23;20024;-86
2022/01/03 02:13:31;;;;;;;28.27;3.85;;;8.80;99.90;;;;;;6212316;23;20384;-85
2022/01/03 02:16:03;;;;;;;28.48;3.97;;;8.90;99.90;;;;;;6210148;23;20340;-85
2022/01/03 02:18:28;;;;;;;30.98;3.80;;;9.00;99.90;;;;;;6237049;23;20031;-86
2022/01/03 02:20:54;;;;;;;27.40;4.10;;;9.70;99.90;;;;;;6210612;23;20023;-85
2022/01/03 02:23:23;;;;;;;26.35;3.80;;;9.30;99.90;;;;;;6210952;23;20039;-86
2022/01/03 02:25:49;;;;;;;28.50;4.57;;;8.90;99.90;;;;;;6236759;23;20055;-85
2022/01/03 02:28:16;;;;;;;27.15;4.10;;;9.70;99.90;;;;;;6212214;23;20028;-85
2022/01/03 02:30:42;;;;;;;33.88;4.60;;;9.00;99.90;;;;;;6210976;23;20086;-85
2022/01/03 02:33:09;;;;;;;25.92;3.90;;;9.00;99.90;;;;;;6237505;23;20363;-86
2022/01/03 02:35:38;;;;;;;31.63;5.53;;;9.50;99.90;;;;;;6235856;23;20023;-86
2022/01/03 02:38:07;;;;;;;30.15;4.53;;;9.00;99.90;;;;;;6237673;23;20019;-86
2022/01/03 02:40:33;;;;;;;20.52;4.10;;;9.00;99.90;;;;;;6213429;23;20464;-86
2022/01/03 02:43:02;;;;;;;29.58;4.20;;;9.10;99.90;;;;;;6212292;23;20055;-85
2022/01/03 02:45:28;;;;;;;32.53;4.45;;;9.80;99.90;;;;;;6238396;23;20048;-85
2022/01/03 02:48:00;;;;;;;27.13;4.15;;;10.00;99.90;;;;;;6213490;23;20098;-86
2022/01/03 02:50:28;;;;;;;26.23;4.00;;;9.40;99.90;;;;;;6237434;23;20012;-86
2022/01/03 02:52:55;;;;;;;34.72;4.20;;;9.00;99.90;;;;;;6238241;23;20574;-86
2022/01/03 02:55:22;;;;;;;27.40;4.55;;;9.00;99.90;;;;;;6239003;23;20020;-85
2022/01/03 02:57:58;;;;;;;34.38;5.07;;;9.20;99.90;;;;;;6212531;23;20095;-85
2022/01/03 03:00:26;;;;;;;19.05;3.70;;;9.00;99.90;;;;;;6212862;23;20008;-86
2022/01/03 03:02:53;;;;;;;37.10;4.05;;;9.70;99.90;;;;;;6213871;23;20463;-85
2022/01/03 03:05:19;;;;;;;25.55;4.35;;;9.40;99.90;;;;;;6237540;23;20040;-85
2022/01/03 03:07:53;;;;;;;27.65;4.25;;;8.90;99.90;;;;;;6212794;23;20463;-85
2022/01/03 03:10:20;;;;;;;37.15;4.70;;;9.70;99.90;;;;;;6213378;23;20364;-85
2022/01/03 03:12:55;;;;;;;28.17;4.32;;;8.30;99.90;;;;;;6215263;23;20027;-85
2022/01/03 03:15:21;;;;;;;25.77;4.18;;;8.80;99.90;;;;;;6212309;23;20039;-85
2022/01/03 03:17:48;;;;;;;32.58;4.45;;;9.50;99.90;;;;;;6212494;23;20109;-85
2022/01/03 03:20:19;;;;;;;32.60;4.38;;;9.30;99.90;;;;;;6212898;23;20506;-86
2022/01/03 03:22:49;;;;;;;38.47;5.20;;;8.80;99.90;;;;;;6238585;23;20074;-85
2022/01/03 03:25:20;;;;;;;32.15;4.43;;;9.50;99.90;;;;;;6236974;23;20398;-85
2022/01/03 03:27:49;;;;;;;36.80;4.35;;;9.30;99.90;;;;;;6213144;23;20016;-85
2022/01/03 03:30:20;;;;;;;30.15;4.18;;;8.60;99.90;;;;;;6212268;23;20165;-85
2022/01/03 03:32:48;;;;;;;30.92;5.13;;;9.40;99.90;;;;;;6212103;23;20047;-85
2022/01/03 03:35:14;;;;;;;29.15;5.07;;;8.50;99.90;;;;;;6212433;23;20019;-85
2022/01/03 03:37:40;;;;;;;28.80;4.60;;;8.50;99.90;;;;;;6238156;23;20436;-85
2022/01/03 03:40:07;;;;;;;39.55;5.45;;;9.20;99.90;;;;;;6211970;23;20103;-84
2022/01/03 03:42:33;;;;;;;33.75;4.95;;;8.50;99.90;;;;;;6238448;23;20026;-84
2022/01/03 03:44:59;;;;;;;32.90;5.07;;;8.60;99.90;;;;;;6213154;23;20051;-83
2022/01/03 03:47:24;;;;;;;29.30;4.38;;;8.90;99.90;;;;;;6236329;23;20459;-83
2022/01/03 03:49:53;;;;;;;40.22;5.07;;;8.40;99.90;;;;;;6237426;23;20031;-84
2022/01/03 03:52:18;;;;;;;33.95;5.72;;;8.30;99.90;;;;;;6212616;23;20024;-84
2022/01/03 03:54:44;;;;;;;44.78;4.90;;;8.30;99.90;;;;;;6237473;23;20045;-83
2022/01/03 03:57:12;;;;;;;27.80;4.65;;;8.30;99.90;;;;;;6213413;23;20099;-84
2022/01/03 03:59:38;;;;;;;41.30;5.45;;;8.90;99.90;;;;;;6212972;23;20465;-84
2022/01/03 04:02:03;;;;;;;31.65;5.13;;;8.20;99.90;;;;;;6211182;23;20027;-84
2022/01/03 04:04:29;;;;;;;39.45;5.32;;;8.30;99.90;;;;;;6237082;23;20075;-83
2022/01/03 04:06:55;;;;;;;31.27;5.20;;;8.30;99.90;;;;;;6237218;23;20509;-84
2022/01/03 04:09:20;;;;;;;34.67;5.05;;;8.80;99.90;;;;;;6212249;23;20016;-84
2022/01/03 04:11:46;;;;;;;34.13;4.63;;;8.20;99.90;;;;;;6238239;23;20083;-83
2022/01/03 04:14:12;;;;;;;31.50;4.63;;;8.30;99.90;;;;;;6237471;23;20020;-84
2022/01/03 04:16:38;;;;;;;39.33;5.53;;;8.30;99.90;;;;;;6236772;22;20066;-83
2022/01/03 04:19:04;;;;;;;32.55;4.55;;;8.20;99.90;;;;;;6212281;23;20020;-83
2022/01/03 04:21:30;;;;;;;30.30;4.90;;;8.20;99.90;;;;;;6236569;23;20027;-83
2022/01/03 04:23:56;;;;;;;51.80;5.20;;;8.20;99.90;;;;;;6213175;23;20542;-84
2022/01/03 04:26:22;;;;;;;32.25;4.60;;;8.10;99.90;;;;;;6238026;23;20027;-84
2022/01/03 04:28:48;;;;;;;35.97;4.35;;;8.20;99.90;;;;;;6236591;23;20016;-84
2022/01/03 04:31:15;;;;;;;36.50;4.97;;;8.60;99.90;;;;;;6212556;23;20078;-84
2022/01/03 04:33:41;;;;;;;36.83;6.22;;;8.20;99.90;;;;;;6211374;23;20019;-83
2022/01/03 04:36:07;;;;;;;46.17;5.70;;;8.30;99.90;;;;;;6212157;23;20012;-84
2022/01/03 04:38:33;;;;;;;40.00;5.68;;;9.00;99.90;;;;;;6212627;23;20048;-83
2022/01/03 04:40:59;;;;;;;30.73;4.40;;;8.90;99.90;;;;;;6237293;23;20099;-84
2022/01/03 04:43:25;;;;;;;33.67;5.82;;;9.30;99.90;;;;;;6236849;23;20027;-84
2022/01/03 04:45:51;;;;;;;31.65;5.30;;;9.10;99.90;;;;;;6236831;23;20095;-84
2022/01/03 04:48:17;;;;;;;42.40;5.22;;;9.10;99.90;;;;;;6212595;23;20016;-83
2022/01/03 04:50:43;;;;;;;36.45;4.68;;;9.00;99.90;;;;;;6236490;23;20016;-84
2022/01/03 04:53:09;;;;;;;38.47;5.13;;;8.30;99.90;;;;;;6237821;23;20519;-84
2022/01/03 04:55:35;;;;;;;40.65;5.45;;;8.40;99.90;;;;;;6212202;23;20043;-84
2022/01/03 04:58:00;;;;;;;40.88;4.95;;;8.40;99.90;;;;;;6211138;23;20020;-83
2022/01/03 05:00:26;;;;;;;36.83;4.85;;;8.50;99.90;;;;;;6236715;23;20017;-84
2022/01/03 05:02:52;;;;;;;36.60;4.65;;;9.30;99.90;;;;;;6212184;23;20079;-84
2022/01/03 05:05:17;;;;;;;31.38;4.88;;;8.70;99.90;;;;;;6235622;23;20012;-83
2022/01/03 05:07:43;;;;;;;36.35;5.10;;;8.80;99.90;;;;;;6237435;23;20333;-84
2022/01/03 05:10:09;;;;;;;36.95;4.60;;;8.50;99.90;;;;;;6211182;23;20081;-84
2022/01/03 05:12:35;;;;;;;38.90;5.95;;;8.50;99.90;;;;;;6237965;23;20030;-83
2022/01/03 05:15:01;;;;;;;40.00;6.15;;;9.30;99.90;;;;;;6237531;23;20012;-83
2022/01/03 05:17:29;;;;;;;33.20;5.72;;;8.50;99.90;;;;;;6235374;23;20087;-83
2022/01/03 05:19:55;;;;;;;35.22;4.82;;;8.50;99.90;;;;;;6211250;23;20020;-82
2022/01/03 05:22:20;;;;;;;38.25;6.07;;;8.50;99.90;;;;;;6236997;23;20016;-83
2022/01/03 05:24:46;;;;;;;34.50;5.90;;;8.70;99.90;;;;;;6236749;23;20031;-82
2022/01/03 05:27:12;;;;;;;40.30;6.43;;;9.40;99.90;;;;;;6212329;23;20325;-82
2022/01/03 05:29:38;;;;;;;38.30;6.18;;;8.50;99.90;;;;;;6212114;23;20012;-83
2022/01/03 05:32:06;;;;;;;35.47;5.10;;;9.20;99.90;;;;;;6235726;23;20431;-82
2022/01/03 05:34:34;;;;;;;37.55;6.07;;;8.40;99.90;;;;;;6209244;23;20293;-82
2022/01/03 05:37:00;;;;;;;39.05;6.15;;;8.40;99.90;;;;;;6212205;23;20024;-82
2022/01/03 05:39:26;;;;;;;40.25;5.80;;;9.40;99.90;;;;;;6235976;23;20067;-82
2022/01/03 05:41:51;;;;;;;29.92;5.25;;;8.40;99.90;;;;;;6212308;23;20122;-82
2022/01/03 05:44:17;;;;;;;34.75;5.38;;;8.50;99.90;;;;;;6212040;23;20016;-82
2022/01/03 05:46:43;;;;;;;41.80;6.13;;;8.40;99.90;;;;;;6207501;23;20106;-83
2022/01/03 05:49:08;;;;;;;48.90;6.10;;;8.80;99.90;;;;;;6236815;23;20027;-82
2022/01/03 05:51:34;;;;;;;41.45;5.82;;;8.30;99.90;;;;;;6236460;23;20020;-82
2022/01/03 05:54:00;;;;;;;44.30;6.03;;;8.30;99.90;;;;;;6236142;23;20020;-82
2022/01/03 05:56:25;;;;;;;47.05;6.25;;;8.20;99.90;;;;;;6212045;23;20012;-82
2022/01/03 05:58:51;;;;;;;32.47;5.03;;;8.20;99.90;;;;;;6234791;23;20062;-82
2022/01/03 06:01:19;;;;;;;36.10;5.57;;;8.20;99.90;;;;;;6235349;23;20023;-82
2022/01/03 06:03:45;;;;;;;37.95;5.05;;;8.30;99.90;;;;;;6236020;23;20012;-81
2022/01/03 06:08:37;;;;;;;43.58;5.35;;;8.30;99.90;;;;;;6236045;23;20020;-82
2022/01/03 06:11:03;;;;;;;42.10;6.03;;;8.40;99.90;;;;;;6236609;23;20058;-82
2022/01/03 06:13:30;;;;;;;46.35;6.38;;;8.30;99.90;;;;;;6237911;23;20121;-82
2022/01/03 06:15:56;;;;;;;42.20;6.97;;;8.60;99.90;;;;;;6238139;23;20012;-82
2022/01/03 06:18:23;;;;;;;38.85;5.47;;;8.50;99.90;;;;;;6238945;23;20095;-81
2022/01/03 06:20:49;;;;;;;41.47;5.97;;;9.00;99.90;;;;;;6211918;23;20056;-81
2022/01/03 06:23:18;;;;;;;41.15;6.30;;;8.30;99.90;;;;;;6239532;23;20016;-81
2022/01/03 06:25:44;;;;;;;40.17;6.70;;;8.30;99.90;;;;;;6214152;23;20016;-82
2022/01/03 06:28:10;;;;;;;38.90;5.70;;;8.30;99.90;;;;;;6238835;23;20102;-81
2022/01/03 06:30:37;;;;;;;45.10;6.82;;;8.30;99.90;;;;;;6213662;23;20186;-81
2022/01/03 06:33:03;;;;;;;31.73;4.88;;;8.20;99.90;;;;;;6240434;23;20020;-82
2022/01/03 06:35:29;;;;;;;43.17;5.40;;;8.80;99.90;;;;;;6212606;23;20024;-82
2022/01/03 06:37:55;;;;;;;48.17;7.43;;;8.20;99.90;;;;;;6238933;23;20019;-81
2022/01/03 06:40:21;;;;;;;31.45;5.22;;;8.20;99.90;;;;;;6239240;23;20455;-81
2022/01/03 06:42:47;;;;;;;43.55;6.60;;;8.50;99.90;;;;;;6238518;23;20020;-82
2022/01/03 06:45:12;;;;;;;46.08;6.40;;;8.30;99.90;;;;;;6214119;23;20441;-82
2022/01/03 06:47:38;;;;;;;39.83;5.38;;;8.30;99.90;;;;;;6238845;23;20020;-82
2022/01/03 06:50:06;;;;;;;43.30;6.70;;;8.80;99.90;;;;;;6237571;23;20020;-82
2022/01/03 06:52:31;;;;;;;44.00;6.45;;;8.40;99.90;;;;;;6239240;23;20004;-82
2022/01/03 06:54:57;;;;;;;46.13;6.82;;;8.40;99.90;;;;;;6239209;23;20077;-82
2022/01/03 06:57:23;;;;;;;43.42;6.63;;;8.90;99.90;;;;;;6237618;23;20020;-82
2022/01/03 06:59:49;;;;;;;47.15;6.10;;;8.30;99.90;;;;;;6239630;23;20013;-81
2022/01/03 07:02:14;;;;;;;38.58;6.10;;;8.50;99.90;;;;;;6240228;23;20023;-82
2022/01/03 07:04:40;;;;;;;44.90;6.20;;;8.80;99.90;;;;;;6237782;23;20016;-82
2022/01/03 07:07:06;;;;;;;36.70;5.82;;;8.20;99.90;;;;;;6239253;23;20470;-82
2022/01/03 07:09:32;;;;;;;49.75;6.25;;;8.20;99.90;;;;;;6238831;23;20016;-81
2022/01/03 07:11:58;;;;;;;41.70;5.47;;;8.80;99.90;;;;;;6238167;23;20012;-81
2022/01/03 07:19:36;;;;;;;47.13;5.60;;;8.10;99.90;;;;;;6238500;23;20478;-81
2022/01/03 07:22:04;;;;;;;52.38;8.18;;;8.20;99.90;;;;;;6238622;23;20016;-81
2022/01/03 07:24:32;;;;;;;41.50;7.05;;;8.20;99.90;;;;;;6212277;23;20024;-81
2022/01/03 07:27:01;;;;;;;39.22;6.07;;;8.90;99.90;;;;;;6213393;23;20027;-81
2022/01/03 07:29:27;;;;;;;45.72;7.15;;;8.20;99.90;;;;;;6238629;23;20081;-81
2022/01/03 07:31:52;;;;;;;48.40;6.63;;;8.30;99.90;;;;;;6212123;23;20111;-81
2022/01/03 07:34:18;;;;;;;45.38;5.95;;;8.40;99.90;;;;;;6239540;22;20016;-81
2022/01/03 07:36:45;;;;;;;41.55;6.60;;;8.20;99.90;;;;;;6240506;22;20375;-81
2022/01/03 07:39:10;;;;;;;48.03;6.35;;;8.20;99.90;;;;;;6237394;23;20012;-81
2022/01/03 07:41:36;;;;;;;39.35;6.20;;;8.30;99.90;;;;;;6238351;23;20074;-81
2022/01/03 07:44:02;;;;;;;45.85;6.28;;;8.40;99.90;;;;;;6213220;23;20020;-81
2022/01/03 07:46:28;;;;;;;47.92;6.63;;;8.30;99.90;;;;;;6236898;23;20363;-82
2022/01/03 07:48:53;;;;;;;41.42;5.90;;;8.70;99.90;;;;;;6237587;23;20024;-81
2022/01/03 07:51:19;;;;;;;42.85;6.63;;;8.30;99.90;;;;;;6237587;23;20091;-81
2022/01/03 07:53:45;;;;;;;49.13;6.15;;;8.50;99.90;;;;;;6236986;23;20016;-81
2022/01/03 07:56:11;;;;;;;37.53;6.20;;;8.40;99.90;;;;;;6238428;23;20025;-82
2022/01/03 07:58:37;;;;;;;46.45;6.40;;;8.60;99.90;;;;;;6237404;23;20024;-83
2022/01/03 08:01:03;;;;;;;36.78;5.80;;;8.80;99.90;;;;;;6237026;23;20198;-82
2022/01/03 08:03:29;;;;;;;45.35;7.22;;;8.40;99.90;;;;;;6237533;23;20070;-82
2022/01/03 08:05:55;;;;;;;47.45;5.15;;;8.40;99.90;;;;;;6238078;22;20404;-82
2022/01/03 08:08:22;;;;;;;33.85;5.47;;;8.50;99.90;;;;;;6238546;23;20066;-81
2022/01/03 08:10:48;;;;;;;37.28;6.15;;;8.60;99.90;;;;;;6212189;23;20070;-82
2022/01/03 08:13:14;;;;;;;51.17;8.10;;;8.50;99.90;;;;;;6237535;23;20393;-82
2022/01/03 08:15:40;;;;;;;42.28;6.50;;;8.40;99.90;;;;;;6236962;23;20016;-82
2022/01/03 08:18:07;;;;;;;40.00;6.30;;;9.00;99.90;;;;;;6238237;23;20016;-82
2022/01/03 08:20:33;;;;;;;38.83;5.45;;;8.60;99.90;;;;;;6236046;23;20093;-82
2022/01/03 08:22:59;;;;;;;42.08;5.25;;;8.80;99.90;;;;;;6212647;23;20389;-82
2022/01/03 08:25:25;;;;;;;39.97;5.80;;;8.60;99.90;;;;;;6237596;23;20019;-82
2022/01/03 08:27:51;;;;;;;39.22;5.93;;;8.60;99.90;;;;;;6211064;23;20023;-82
2022/01/03 08:30:17;;;;;;;43.38;6.60;;;8.80;99.90;;;;;;6237622;23;20074;-82
2022/01/03 08:32:43;;;;;;;47.15;7.07;;;8.90;99.90;;;;;;6237270;23;20089;-83
2022/01/03 08:35:09;;;;;;;29.38;5.97;;;8.80;99.90;;;;;;6236696;23;20027;-82
2022/01/03 08:37:35;;;;;;;36.30;5.25;;;8.80;99.90;;;;;;6212285;23;20020;-82
2022/01/03 08:40:04;;;;;;;35.33;5.47;;;8.90;99.90;;;;;;6237141;23;20065;-81
2022/01/03 08:42:31;;;;;;;48.00;6.82;;;8.90;99.90;;;;;;6236640;23;20020;-82
2022/01/03 08:44:57;;;;;;;44.25;6.28;;;9.60;99.90;;;;;;6236752;23;20016;-82
2022/01/03 08:47:23;;;;;;;39.47;5.93;;;9.50;99.90;;;;;;6211625;23;20023;-82
2022/01/03 08:49:49;;;;;;;37.25;5.32;;;9.10;99.90;;;;;;6233212;23;20039;-81
2022/01/03 08:52:15;;;;;;;47.50;5.97;;;8.90;99.90;;;;;;6234332;23;20024;-81
2022/01/03 08:54:41;;;;;;;44.75;5.70;;;8.90;99.90;;;;;;6232144;23;20016;-81
2022/01/03 08:57:07;;;;;;;36.72;5.30;;;8.90;99.90;;;;;;6235255;22;20013;-80
2022/01/03 08:59:33;;;;;;;43.88;5.70;;;8.90;99.90;;;;;;6234372;23;20012;-81
2022/01/03 09:01:59;;;;;;;45.63;5.60;;;9.00;99.90;;;;;;6232824;23;20054;-81
2022/01/03 09:04:25;;;;;;;36.75;5.45;;;9.00;99.90;;;;;;6232874;23;20408;-81
2022/01/03 09:06:52;;;;;;;37.88;6.75;;;9.00;99.90;;;;;;6234166;23;20070;-82
2022/01/03 09:09:18;;;;;;;36.92;5.50;;;9.00;99.90;;;;;;6207473;23;20051;-81
2022/01/03 09:11:44;;;;;;;34.88;5.82;;;9.10;99.90;;;;;;6208947;23;20042;-81
2022/01/03 09:14:10;;;;;;;37.05;5.57;;;9.80;99.90;;;;;;6233828;23;20091;-81
2022/01/03 09:16:35;;;;;;;38.88;6.00;;;9.30;99.90;;;;;;6233225;23;20590;-82
2022/01/03 09:19:01;;;;;;;37.03;5.80;;;9.20;99.90;;;;;;6233975;23;20154;-81
2022/01/03 09:21:28;;;;;;;36.15;5.10;;;9.70;99.90;;;;;;6233814;23;20027;-81
2022/01/03 09:24:16;;;;;;;39.22;5.68;;;9.10;99.90;;;;;;6233481;23;20024;-81
2022/01/03 09:29:24;;;;;;;31.70;4.70;;;9.10;99.90;;;;;;6234091;23;20126;-81
2022/01/03 09:31:50;;;;;;;36.80;5.22;;;9.20;99.90;;;;;;6234757;22;20032;-81
2022/01/03 09:34:15;;;;;;;32.20;5.28;;;9.20;99.90;;;;;;6233832;23;20046;-81
2022/01/03 09:36:41;;;;;;;39.15;5.45;;;9.60;99.90;;;;;;6208054;23;20062;-82
2022/01/03 09:39:07;;;;;;;37.53;6.18;;;9.20;99.90;;;;;;6233552;23;20031;-81
2022/01/03 09:41:34;;;;;;;39.08;5.50;;;9.30;99.90;;;;;;6234057;23;20074;-81
2022/01/03 09:44:04;;;;;;;39.83;5.65;;;9.30;99.90;;;;;;6233807;23;20423;-81
2022/01/03 09:46:34;;;;;;;35.60;5.43;;;9.30;99.90;;;;;;6232836;23;20023;-82
2022/01/03 09:49:00;;;;;;;42.55;6.10;;;9.30;99.90;;;;;;6235303;23;20051;-81
2022/01/03 09:51:29;;;;;;;33.42;6.30;;;9.40;99.90;;;;;;6235361;23;20449;-81
2022/01/03 09:53:59;;;;;;;37.22;5.95;;;9.60;99.90;;;;;;6233689;23;20031;-81
2022/01/03 09:56:26;;;;;;;41.63;5.40;;;9.40;99.90;;;;;;6236082;23;20099;-81
2022/01/03 09:58:52;;;;;;;35.80;6.03;;;9.80;99.90;;;;;;6235144;23;20059;-81
2022/01/03 10:01:19;;;;;;;42.03;7.30;;;9.40;99.90;;;;;;6235471;23;20043;-81
2022/01/03 10:03:47;;;;;;;31.50;5.60;;;9.40;99.90;;;;;;6234978;23;20085;-81
2022/01/03 10:06:15;;;;;;;36.38;4.78;;;9.60;99.90;;;;;;6235824;23;20028;-82
2022/01/03 10:08:41;;;;;;;34.05;5.50;;;10.20;99.90;;;;;;6231024;23;20106;-81
2022/01/03 10:11:07;;;;;;;40.53;5.55;;;9.50;99.90;;;;;;6232206;23;20452;-80
2022/01/03 10:13:33;;;;;;;37.42;5.95;;;9.80;99.90;;;;;;6236723;22;20030;-81
2022/01/03 10:15:59;;;;;;;37.63;5.13;;;9.50;99.90;;;;;;6235248;23;20008;-81
2022/01/03 10:18:26;;;;;;;40.03;6.65;;;9.60;99.90;;;;;;6237684;22;20105;-82
2022/01/03 10:20:52;;;;;;;36.20;6.72;;;9.50;99.90;;;;;;6236055;22;20105;-81
2022/01/03 10:23:19;;;;;;;40.47;7.00;;;9.60;99.90;;;;;;6235589;23;20600;-81
2022/01/03 10:25:46;;;;;;;32.22;6.30;;;9.60;99.90;;;;;;6235090;23;20034;-80
2022/01/03 10:28:22;;;;;;;35.70;5.00;;;9.60;99.90;;;;;;6235020;23;20023;-81
2022/01/03 10:30:48;;;;;;;40.83;7.20;;;9.70;99.90;;;;;;6209540;23;20012;-81
2022/01/03 10:33:15;;;;;;;36.20;6.20;;;9.70;99.90;;;;;;6236082;23;20027;-80
2022/01/03 10:35:43;;;;;;;28.85;5.50;;;9.80;99.90;;;;;;6234106;23;20019;-80
2022/01/03 10:38:10;;;;;;;37.15;6.05;;;9.80;99.90;;;;;;6236064;23;20511;-81
2022/01/03 10:40:37;;;;;;;35.70;5.03;;;10.40;99.90;;;;;;6234940;23;20020;-81
2022/01/03 10:43:19;;;;;;;27.58;5.10;;;9.90;99.90;;;;;;6235441;23;20020;-81
2022/01/03 10:45:46;;;;;;;30.52;5.93;;;9.90;99.90;;;;;;6235241;23;20023;-81
2022/01/03 10:48:31;;;;;;;31.88;5.82;;;10.20;99.90;;;;;;6235201;23;20047;-81
2022/01/03 10:50:57;;;;;;;27.70;5.05;;;10.00;99.90;;;;;;6234753;23;20467;-80
2022/01/03 10:53:37;;;;;;;35.72;5.15;;;10.00;99.90;;;;;;6233126;23;20100;-82
2022/01/03 10:56:24;;;;;;;35.20;5.57;;;10.00;99.90;;;;;;6236292;22;20383;-79
2022/01/03 10:58:51;;;;;;;31.55;5.57;;;10.00;99.90;;;;;;6237499;22;20874;-81
2022/01/03 11:01:20;;;;;;;34.65;5.70;;;10.00;99.90;;;;;;6234522;23;20020;-83
2022/01/03 11:03:47;;;;;;;34.05;5.75;;;10.40;99.90;;;;;;6234373;23;20054;-81
2022/01/03 11:06:24;;;;;;;33.83;4.97;;;10.00;99.90;;;;;;6235775;23;20028;-81
2022/01/03 11:11:38;;;;;;;27.02;4.30;;;10.00;99.90;;;;;;6235059;23;20063;-81
2022/01/03 11:14:05;;;;;;;40.50;5.70;;;9.90;99.90;;;;;;6235054;23;20356;-81
2022/01/03 11:16:40;;;;;;;30.42;4.93;;;10.40;99.90;;;;;;6208823;23;20420;-82
2022/01/03 11:19:06;;;;;;;33.47;5.03;;;10.30;99.90;;;;;;6209878;23;20517;-81
2022/01/03 11:21:33;;;;;;;36.88;5.05;;;9.90;99.90;;;;;;6209885;23;20110;-81
2022/01/03 11:24:00;;;;;;;32.67;4.78;;;10.00;99.90;;;;;;6235962;23;20336;-81
2022/01/03 11:26:27;;;;;;;30.90;4.85;;;9.90;99.90;;;;;;6209768;23;20103;-81
2022/01/03 11:28:53;;;;;;;34.17;4.78;;;10.40;99.90;;;;;;6209361;23;20016;-81
2022/01/03 11:31:20;;;;;;;32.60;5.10;;;9.90;99.90;;;;;;6208693;23;20020;-81
2022/01/03 11:33:50;;;;;;;43.60;5.40;;;10.50;99.90;;;;;;6208713;23;20618;-81
2022/01/03 11:36:18;;;;;;;29.30;5.50;;;10.80;99.90;;;;;;6209976;23;20016;-81
2022/01/03 11:38:45;;;;;;;34.75;5.05;;;10.60;99.90;;;;;;6208656;23;20459;-81
2022/01/03 11:41:11;;;;;;;33.28;5.63;;;9.90;99.90;;;;;;6185463;23;20413;-81
2022/01/03 11:43:39;;;;;;;30.48;4.55;;;10.20;99.90;;;;;;6184226;23;20042;-81
2022/01/03 11:46:06;;;;;;;30.15;5.38;;;9.90;99.90;;;;;;6209307;23;20348;-82
2022/01/03 11:48:32;;;;;;;31.30;4.88;;;10.00;99.90;;;;;;6184691;23;20564;-82
2022/01/03 11:51:02;;;;;;;32.85;5.22;;;10.30;99.90;;;;;;6209554;23;20570;-80
2022/01/03 11:53:31;;;;;;;34.95;4.80;;;10.00;99.90;;;;;;6208100;23;20012;-81
2022/01/03 11:56:00;;;;;;;36.13;5.60;;;10.10;99.90;;;;;;6210096;23;20019;-82
2022/01/03 11:58:49;;;;;;;32.03;6.18;;;10.10;99.90;;;;;;6209748;23;20028;-82
2022/01/03 12:04:08;;;;;;;28.25;4.80;;;10.10;99.90;;;;;;6208313;23;20023;-82
2022/01/03 12:06:34;;;;;;;35.50;5.45;;;10.20;99.90;;;;;;6235972;23;20043;-82
2022/01/03 12:09:07;;;;;;;33.20;5.35;;;10.20;99.90;;;;;;6210070;23;20050;-82
2022/01/03 12:11:33;;;;;;;33.43;5.10;;;10.20;99.90;;;;;;6208956;23;20349;-81
2022/01/03 12:14:09;;;;;;;34.20;4.65;;;10.20;99.90;;;;;;6183648;23;20247;-81
2022/01/03 12:16:42;;;;;;;31.23;5.75;;;10.90;99.90;;;;;;6208871;23;20031;-82
2022/01/03 12:19:10;;;;;;;32.30;5.22;;;10.10;99.90;;;;;;6208947;23;20020;-81
2022/01/03 12:21:48;;;;;;;31.45;5.18;;;10.60;99.90;;;;;;6210126;23;20114;-82
2022/01/03 12:24:26;;;;;;;31.23;5.10;;;10.00;99.90;;;;;;6237107;23;20032;-82
2022/01/03 12:27:13;;;;;;;32.63;4.53;;;10.00;99.90;;;;;;6208369;23;20028;-82
2022/01/03 12:29:53;;;;;;;29.35;4.78;;;10.00;99.90;;;;;;6231955;23;20024;-81
2022/01/03 12:32:27;;;;;;;36.20;5.10;;;10.10;99.90;;;;;;6208571;23;20016;-81
2022/01/03 12:35:08;;;;;;;30.52;4.45;;;9.90;99.90;;;;;;6182908;23;20114;-80
2022/01/03 12:37:36;;;;;;;30.02;4.95;;;9.90;99.90;;;;;;6209056;23;20020;-81
2022/01/03 12:40:04;;;;;;;37.20;6.10;;;10.60;99.90;;;;;;6208923;23;20118;-81
2022/01/03 12:42:56;;;;;;;38.13;5.45;;;10.10;99.90;;;;;;6235690;23;20027;-81
2022/01/03 12:45:25;;;;;;;34.53;4.90;;;9.90;99.90;;;;;;6208201;23;20428;-82
2022/01/03 12:47:51;;;;;;;33.75;5.47;;;10.00;99.90;;;;;;6208434;23;20019;-82
2022/01/03 12:50:21;;;;;;;37.42;5.30;;;10.10;99.90;;;;;;6207443;23;20027;-82
2022/01/03 12:52:48;;;;;;;28.80;4.93;;;10.10;99.90;;;;;;6183318;23;20020;-82
2022/01/03 12:55:37;;;;;;;31.50;4.78;;;10.20;99.90;;;;;;6207501;23;20432;-80
2022/01/03 12:58:14;;;;;;;30.60;5.25;;;10.20;99.90;;;;;;6183824;23;20031;-80
2022/01/03 13:00:42;;;;;;;25.65;4.60;;;10.30;99.90;;;;;;6207428;23;20710;-80
2022/01/03 13:03:22;;;;;;;36.58;5.47;;;10.30;99.90;;;;;;6183519;23;20012;-80
2022/01/03 13:06:07;;;;;;;26.75;4.93;;;10.80;99.90;;;;;;6207565;23;20016;-80
2022/01/03 13:08:34;;;;;;;37.83;5.57;;;10.20;99.90;;;;;;6207422;23;20680;-80